sensor_id;sensor_type;location;lat;lon;timestamp;temperature;humidity
3281;DHT22;1652;51.318;6.202;2023-05-25T00:00:12;10.30;99.90
3281;DHT22;1652;51.318;6.202;2023-05-25T00:02:39;10.30;99.90
3281;DHT22;1652;51.318;6.202;2023-05-25T00:05:07;10.20;99.90
3281;DHT22;1652;51.318;6.202;2023-05-25T00:07:35;10.10;99.90
3281;DHT22;1652;51.318;6.202;2023-05-25T00:10:02;10.00;99.90
3281;DHT22;1652;51.318;6.202;2023-05-25T00:12:29;9.90;99.90
3281;DHT22;1652;51.318;6.202;2023-05-25T00:17:24;9.90;99.90
3281;DHT22;1652;51.318;6.202;2023-05-25T00:19:58;10.00;99.90
3281;DHT22;1652;51.318;6.202;2023-05-25T00:22:37;9.90;99.90
3281;DHT22;1652;51.318;6.202;2023-05-25T00:25:04;10.00;99.90
3281;DHT22;1652;51.318;6.202;2023-05-25T00:27:32;10.00;99.90
3281;DHT22;1652;51.318;6.202;2023-05-25T00:29:59;10.00;99.90
3281;DHT22;1652;51.318;6.202;2023-05-25T00:32:26;10.00;99.90
3281;DHT22;1652;51.318;6.202;2023-05-25T00:34:53;10.10;99.90
3281;DHT22;1652;51.318;6.202;2023-05-25T00:37:21;10.00;99.90
3281;DHT22;1652;51.318;6.202;2023-05-25T00:39:48;10.00;99.90
3281;DHT22;1652;51.318;6.202;2023-05-25T00:42:15;10.00;99.90
3281;DHT22;1652;51.318;6.202;2023-05-25T00:44:42;9.90;99.90
3281;DHT22;1652;51.318;6.202;2023-05-25T00:47:09;9.80;99.90
3281;DHT22;1652;51.318;6.202;2023-05-25T00:49:37;9.80;99.90
3281;DHT22;1652;51.318;6.202;2023-05-25T00:52:04;9.80;99.90
3281;DHT22;1652;51.318;6.202;2023-05-25T00:54:32;9.70;99.90
3281;DHT22;1652;51.318;6.202;2023-05-25T00:57:02;9.50;99.90
3281;DHT22;1652;51.318;6.202;2023-05-25T00:59:45;9.30;99.90
3281;DHT22;1652;51.318;6.202;2023-05-25T01:02:15;9.30;99.90
3281;DHT22;1652;51.318;6.202;2023-05-25T01:04:46;9.40;99.90
3281;DHT22;1652;51.318;6.202;2023-05-25T01:07:21;9.40;99.90
3281;DHT22;1652;51.318;6.202;2023-05-25T01:09:53;9.30;99.90
3281;DHT22;1652;51.318;6.202;2023-05-25T01:12:23;9.20;99.90
3281;DHT22;1652;51.318;6.202;2023-05-25T01:17:25;9.30;99.90
3281;DHT22;1652;51.318;6.202;2023-05-25T01:19:52;9.30;99.90
3281;DHT22;1652;51.318;6.202;2023-05-25T01:22:52;9.30;99.90
3281;DHT22;1652;51.318;6.202;2023-05-25T01:25:44;9.30;99.90
3281;DHT22;1652;51.318;6.202;2023-05-25T01:28:24;9.30;99.90
3281;DHT22;1652;51.318;6.202;2023-05-25T01:30:51;9.20;99.90
3281;DHT22;1652;51.318;6.202;2023-05-25T01:33:19;9.30;99.90
3281;DHT22;1652;51.318;6.202;2023-05-25T01:35:48;9.50;99.90
3281;DHT22;1652;51.318;6.202;2023-05-25T01:38:15;9.40;99.90
3281;DHT22;1652;51.318;6.202;2023-05-25T01:40:43;9.40;99.90
3281;DHT22;1652;51.318;6.202;2023-05-25T01:43:10;9.60;99.90
3281;DHT22;1652;51.318;6.202;2023-05-25T01:45:37;9.50;99.90
3281;DHT22;1652;51.318;6.202;2023-05-25T01:51:01;9.50;99.90
3281;DHT22;1652;51.318;6.202;2023-05-25T01:53:35;9.40;99.90
3281;DHT22;1652;51.318;6.202;2023-05-25T01:56:05;9.30;99.90
3281;DHT22;1652;51.318;6.202;2023-05-25T01:58:38;9.40;99.90
3281;DHT22;1652;51.318;6.202;2023-05-25T02:01:08;9.40;99.90
3281;DHT22;1652;51.318;6.202;2023-05-25T02:03:37;9.30;99.90
3281;DHT22;1652;51.318;6.202;2023-05-25T02:06:06;9.40;99.90
3281;DHT22;1652;51.318;6.202;2023-05-25T02:08:33;9.30;99.90
3281;DHT22;1652;51.318;6.202;2023-05-25T02:11:01;9.30;99.90
3281;DHT22;1652;51.318;6.202;2023-05-25T02:13:29;9.30;99.90
3281;DHT22;1652;51.318;6.202;2023-05-25T02:15:56;9.30;99.90
3281;DHT22;1652;51.318;6.202;2023-05-25T02:18:23;9.30;99.90
3281;DHT22;1652;51.318;6.202;2023-05-25T02:20:50;9.40;99.90
3281;DHT22;1652;51.318;6.202;2023-05-25T02:23:17;9.40;99.90
3281;DHT22;1652;51.318;6.202;2023-05-25T02:25:44;9.40;99.90
3281;DHT22;1652;51.318;6.202;2023-05-25T02:28:13;9.30;99.90
3281;DHT22;1652;51.318;6.202;2023-05-25T02:30:40;9.30;99.90
3281;DHT22;1652;51.318;6.202;2023-05-25T02:33:07;9.30;99.90
3281;DHT22;1652;51.318;6.202;2023-05-25T02:35:34;9.20;99.90
3281;DHT22;1652;51.318;6.202;2023-05-25T02:38:01;9.20;99.90
3281;DHT22;1652;51.318;6.202;2023-05-25T02:40:28;9.20;99.90
3281;DHT22;1652;51.318;6.202;2023-05-25T02:42:55;9.30;99.90
3281;DHT22;1652;51.318;6.202;2023-05-25T02:45:22;9.30;99.90
3281;DHT22;1652;51.318;6.202;2023-05-25T02:47:49;9.20;99.90
3281;DHT22;1652;51.318;6.202;2023-05-25T02:50:16;9.20;99.90
3281;DHT22;1652;51.318;6.202;2023-05-25T02:52:43;9.30;99.90
3281;DHT22;1652;51.318;6.202;2023-05-25T02:55:10;9.20;99.90
3281;DHT22;1652;51.318;6.202;2023-05-25T02:57:39;9.20;99.90
3281;DHT22;1652;51.318;6.202;2023-05-25T03:00:06;9.10;99.90
3281;DHT22;1652;51.318;6.202;2023-05-25T03:02:34;9.10;99.90
3281;DHT22;1652;51.318;6.202;2023-05-25T03:05:01;9.00;99.90
3281;DHT22;1652;51.318;6.202;2023-05-25T03:07:30;8.80;99.90
3281;DHT22;1652;51.318;6.202;2023-05-25T03:09:57;8.80;99.90
3281;DHT22;1652;51.318;6.202;2023-05-25T03:12:25;8.80;99.90
3281;DHT22;1652;51.318;6.202;2023-05-25T03:17:17;8.90;99.90
3281;DHT22;1652;51.318;6.202;2023-05-25T03:19:44;8.80;99.90
3281;DHT22;1652;51.318;6.202;2023-05-25T03:22:11;9.00;99.90
3281;DHT22;1652;51.318;6.202;2023-05-25T03:24:38;9.00;99.90
3281;DHT22;1652;51.318;6.202;2023-05-25T03:27:07;9.10;99.90
3281;DHT22;1652;51.318;6.202;2023-05-25T03:29:34;9.20;99.90
3281;DHT22;1652;51.318;6.202;2023-05-25T03:32:01;9.10;99.90
3281;DHT22;1652;51.318;6.202;2023-05-25T03:34:28;9.10;99.90
3281;DHT22;1652;51.318;6.202;2023-05-25T03:36:55;9.00;99.90
3281;DHT22;1652;51.318;6.202;2023-05-25T03:39:22;8.90;99.90
3281;DHT22;1652;51.318;6.202;2023-05-25T03:41:49;8.90;99.90
3281;DHT22;1652;51.318;6.202;2023-05-25T03:44:16;9.00;99.90
3281;DHT22;1652;51.318;6.202;2023-05-25T03:46:43;9.00;99.90
3281;DHT22;1652;51.318;6.202;2023-05-25T03:49:10;9.00;99.90
3281;DHT22;1652;51.318;6.202;2023-05-25T03:51:40;8.90;99.90
3281;DHT22;1652;51.318;6.202;2023-05-25T03:54:07;9.00;99.90
3281;DHT22;1652;51.318;6.202;2023-05-25T03:56:34;8.90;99.90
3281;DHT22;1652;51.318;6.202;2023-05-25T03:59:01;9.00;99.90
3281;DHT22;1652;51.318;6.202;2023-05-25T04:01:28;9.10;99.90
3281;DHT22;1652;51.318;6.202;2023-05-25T04:03:55;9.10;99.90
3281;DHT22;1652;51.318;6.202;2023-05-25T04:06:23;9.20;99.90
3281;DHT22;1652;51.318;6.202;2023-05-25T04:08:51;9.20;99.90
3281;DHT22;1652;51.318;6.202;2023-05-25T04:11:18;9.20;99.90
3281;DHT22;1652;51.318;6.202;2023-05-25T04:13:46;9.60;99.90
3281;DHT22;1652;51.318;6.202;2023-05-25T04:16:13;9.70;99.90
3281;DHT22;1652;51.318;6.202;2023-05-25T04:18:40;10.00;99.90
3281;DHT22;1652;51.318;6.202;2023-05-25T04:21:07;10.10;99.90
3281;DHT22;1652;51.318;6.202;2023-05-25T04:23:34;10.10;99.90
3281;DHT22;1652;51.318;6.202;2023-05-25T04:26:01;10.20;99.90
3281;DHT22;1652;51.318;6.202;2023-05-25T04:28:29;10.10;99.90
3281;DHT22;1652;51.318;6.202;2023-05-25T04:30:56;10.10;99.90
3281;DHT22;1652;51.318;6.202;2023-05-25T04:33:23;10.10;99.90
3281;DHT22;1652;51.318;6.202;2023-05-25T04:35:55;10.10;99.90
3281;DHT22;1652;51.318;6.202;2023-05-25T04:38:25;10.30;99.90
3281;DHT22;1652;51.318;6.202;2023-05-25T04:40:52;10.50;99.90
3281;DHT22;1652;51.318;6.202;2023-05-25T04:43:23;10.50;99.90
3281;DHT22;1652;51.318;6.202;2023-05-25T04:45:51;10.70;99.90
3281;DHT22;1652;51.318;6.202;2023-05-25T04:48:20;10.80;99.90
3281;DHT22;1652;51.318;6.202;2023-05-25T04:50:47;11.00;99.90
3281;DHT22;1652;51.318;6.202;2023-05-25T04:53:14;11.00;99.90
3281;DHT22;1652;51.318;6.202;2023-05-25T04:55:41;11.20;99.90
3281;DHT22;1652;51.318;6.202;2023-05-25T04:58:08;11.60;98.00
3281;DHT22;1652;51.318;6.202;2023-05-25T05:00:35;12.00;96.90
3281;DHT22;1652;51.318;6.202;2023-05-25T05:03:02;12.60;21.50
3281;DHT22;1652;51.318;6.202;2023-05-25T05:05:29;13.40;1.00
3281;DHT22;1652;51.318;6.202;2023-05-25T05:07:56;14.00;1.00
3281;DHT22;1652;51.318;6.202;2023-05-25T05:10:23;14.50;1.00
3281;DHT22;1652;51.318;6.202;2023-05-25T05:12:50;14.80;1.00
3281;DHT22;1652;51.318;6.202;2023-05-25T05:15:17;15.60;99.90
3281;DHT22;1652;51.318;6.202;2023-05-25T05:17:44;15.90;1.00
3281;DHT22;1652;51.318;6.202;2023-05-25T05:20:12;16.30;1.60
3281;DHT22;1652;51.318;6.202;2023-05-25T05:22:42;16.90;99.90
3281;DHT22;1652;51.318;6.202;2023-05-25T05:25:09;17.40;1.00
3281;DHT22;1652;51.318;6.202;2023-05-25T05:27:36;16.90;1.00
3281;DHT22;1652;51.318;6.202;2023-05-25T05:30:03;16.50;1.00
3281;DHT22;1652;51.318;6.202;2023-05-25T05:32:30;17.20;99.90
3281;DHT22;1652;51.318;6.202;2023-05-25T05:34:57;17.10;96.50
3281;DHT22;1652;51.318;6.202;2023-05-25T05:37:24;17.40;1.00
3281;DHT22;1652;51.318;6.202;2023-05-25T05:39:51;17.70;1.00
3281;DHT22;1652;51.318;6.202;2023-05-25T05:42:19;17.70;1.00
3281;DHT22;1652;51.318;6.202;2023-05-25T05:44:46;17.60;1.00
3281;DHT22;1652;51.318;6.202;2023-05-25T05:47:13;18.40;1.00
3281;DHT22;1652;51.318;6.202;2023-05-25T05:49:40;19.10;99.90
3281;DHT22;1652;51.318;6.202;2023-05-25T05:52:08;19.40;1.00
3281;DHT22;1652;51.318;6.202;2023-05-25T05:54:35;19.50;1.00
3281;DHT22;1652;51.318;6.202;2023-05-25T05:57:03;19.40;17.40
3281;DHT22;1652;51.318;6.202;2023-05-25T05:59:29;19.60;1.00
3281;DHT22;1652;51.318;6.202;2023-05-25T06:01:56;19.70;1.00
3281;DHT22;1652;51.318;6.202;2023-05-25T06:04:23;19.80;99.90
3281;DHT22;1652;51.318;6.202;2023-05-25T06:06:54;19.60;1.00
3281;DHT22;1652;51.318;6.202;2023-05-25T06:09:21;19.20;1.00
3281;DHT22;1652;51.318;6.202;2023-05-25T06:11:48;19.30;1.00
3281;DHT22;1652;51.318;6.202;2023-05-25T06:14:15;19.00;1.00
3281;DHT22;1652;51.318;6.202;2023-05-25T06:16:42;18.80;1.00
3281;DHT22;1652;51.318;6.202;2023-05-25T06:19:10;18.60;99.90
3281;DHT22;1652;51.318;6.202;2023-05-25T06:21:37;18.30;1.00
3281;DHT22;1652;51.318;6.202;2023-05-25T06:24:04;18.20;1.00
3281;DHT22;1652;51.318;6.202;2023-05-25T06:26:31;18.00;1.00
3281;DHT22;1652;51.318;6.202;2023-05-25T06:28:58;18.40;1.00
3281;DHT22;1652;51.318;6.202;2023-05-25T06:31:25;18.30;1.00
3281;DHT22;1652;51.318;6.202;2023-05-25T06:33:52;18.40;57.40
3281;DHT22;1652;51.318;6.202;2023-05-25T06:36:19;17.90;1.00
3281;DHT22;1652;51.318;6.202;2023-05-25T06:38:47;18.20;99.90
3281;DHT22;1652;51.318;6.202;2023-05-25T06:41:14;18.80;1.00
3281;DHT22;1652;51.318;6.202;2023-05-25T06:43:41;19.40;20.40
3281;DHT22;1652;51.318;6.202;2023-05-25T06:46:08;20.10;99.90
3281;DHT22;1652;51.318;6.202;2023-05-25T06:48:38;20.20;99.90
3281;DHT22;1652;51.318;6.202;2023-05-25T06:51:05;19.90;99.90
3281;DHT22;1652;51.318;6.202;2023-05-25T06:53:32;19.40;99.90
3281;DHT22;1652;51.318;6.202;2023-05-25T06:55:59;19.10;1.00
3281;DHT22;1652;51.318;6.202;2023-05-25T06:58:26;19.30;53.60
3281;DHT22;1652;51.318;6.202;2023-05-25T07:00:53;19.80;99.90
3281;DHT22;1652;51.318;6.202;2023-05-25T07:03:20;19.90;99.90
3281;DHT22;1652;51.318;6.202;2023-05-25T07:05:47;20.20;99.90
3281;DHT22;1652;51.318;6.202;2023-05-25T07:08:15;20.30;99.90
3281;DHT22;1652;51.318;6.202;2023-05-25T07:10:42;20.40;99.90
3281;DHT22;1652;51.318;6.202;2023-05-25T07:13:09;20.50;99.90
3281;DHT22;1652;51.318;6.202;2023-05-25T07:15:36;21.40;1.00
3281;DHT22;1652;51.318;6.202;2023-05-25T07:18:03;21.30;1.00
3281;DHT22;1652;51.318;6.202;2023-05-25T07:20:30;21.30;1.00
3281;DHT22;1652;51.318;6.202;2023-05-25T07:23:00;22.00;1.00
3281;DHT22;1652;51.318;6.202;2023-05-25T07:25:26;21.50;1.00
3281;DHT22;1652;51.318;6.202;2023-05-25T07:27:54;20.80;1.00
3281;DHT22;1652;51.318;6.202;2023-05-25T07:30:21;20.60;1.00
3281;DHT22;1652;51.318;6.202;2023-05-25T07:32:48;20.60;1.00
3281;DHT22;1652;51.318;6.202;2023-05-25T07:35:15;20.20;1.00
3281;DHT22;1652;51.318;6.202;2023-05-25T07:37:42;21.00;1.00
3281;DHT22;1652;51.318;6.202;2023-05-25T07:40:09;21.20;1.00
3281;DHT22;1652;51.318;6.202;2023-05-25T07:42:36;20.60;1.00
3281;DHT22;1652;51.318;6.202;2023-05-25T07:45:03;20.70;1.00
3281;DHT22;1652;51.318;6.202;2023-05-25T07:47:30;20.70;1.00
3281;DHT22;1652;51.318;6.202;2023-05-25T07:49:57;21.10;1.00
3281;DHT22;1652;51.318;6.202;2023-05-25T07:52:24;21.30;1.00
3281;DHT22;1652;51.318;6.202;2023-05-25T07:54:51;21.60;1.00
3281;DHT22;1652;51.318;6.202;2023-05-25T07:57:18;22.30;99.90
3281;DHT22;1652;51.318;6.202;2023-05-25T07:59:45;21.80;99.90
3281;DHT22;1652;51.318;6.202;2023-05-25T08:02:12;21.10;1.00
3281;DHT22;1652;51.318;6.202;2023-05-25T08:04:39;20.50;1.00
3281;DHT22;1652;51.318;6.202;2023-05-25T08:07:07;20.90;1.00
3281;DHT22;1652;51.318;6.202;2023-05-25T08:09:34;21.20;1.00
3281;DHT22;1652;51.318;6.202;2023-05-25T08:12:00;21.60;1.00
3281;DHT22;1652;51.318;6.202;2023-05-25T08:17:20;21.90;99.90
3281;DHT22;1652;51.318;6.202;2023-05-25T08:19:47;20.50;99.90
3281;DHT22;1652;51.318;6.202;2023-05-25T08:22:14;20.70;1.00
3281;DHT22;1652;51.318;6.202;2023-05-25T08:24:41;20.20;1.00
3281;DHT22;1652;51.318;6.202;2023-05-25T08:27:08;20.40;1.00
3281;DHT22;1652;51.318;6.202;2023-05-25T08:29:35;21.00;1.00
3281;DHT22;1652;51.318;6.202;2023-05-25T08:32:02;21.50;1.00
3281;DHT22;1652;51.318;6.202;2023-05-25T08:34:29;20.90;1.00
3281;DHT22;1652;51.318;6.202;2023-05-25T08:36:56;20.50;1.00
3281;DHT22;1652;51.318;6.202;2023-05-25T08:39:23;21.10;1.00
3281;DHT22;1652;51.318;6.202;2023-05-25T08:41:51;21.60;1.00
3281;DHT22;1652;51.318;6.202;2023-05-25T08:44:18;22.40;99.90
3281;DHT22;1652;51.318;6.202;2023-05-25T08:46:47;22.20;99.90
3281;DHT22;1652;51.318;6.202;2023-05-25T08:49:17;21.60;99.90
3281;DHT22;1652;51.318;6.202;2023-05-25T08:51:49;20.60;99.90
3281;DHT22;1652;51.318;6.202;2023-05-25T08:54:19;19.70;1.00
3281;DHT22;1652;51.318;6.202;2023-05-25T08:56:52;19.10;99.90
3281;DHT22;1652;51.318;6.202;2023-05-25T08:59:30;19.40;99.90
3281;DHT22;1652;51.318;6.202;2023-05-25T09:04:36;19.90;1.00
3281;DHT22;1652;51.318;6.202;2023-05-25T09:07:04;20.00;1.00
3281;DHT22;1652;51.318;6.202;2023-05-25T09:09:37;20.30;1.00
3281;DHT22;1652;51.318;6.202;2023-05-25T09:12:05;20.90;1.00
3281;DHT22;1652;51.318;6.202;2023-05-25T09:14:33;21.20;1.00
3281;DHT22;1652;51.318;6.202;2023-05-25T09:17:00;21.90;99.90
3281;DHT22;1652;51.318;6.202;2023-05-25T09:19:27;21.20;99.90
3281;DHT22;1652;51.318;6.202;2023-05-25T09:21:54;20.40;1.00
3281;DHT22;1652;51.318;6.202;2023-05-25T09:24:40;20.10;1.00
3281;DHT22;1652;51.318;6.202;2023-05-25T09:27:10;19.90;99.90
3281;DHT22;1652;51.318;6.202;2023-05-25T09:29:37;19.40;83.80
3281;DHT22;1652;51.318;6.202;2023-05-25T09:32:05;19.00;1.00
3281;DHT22;1652;51.318;6.202;2023-05-25T09:34:32;19.50;99.90
3281;DHT22;1652;51.318;6.202;2023-05-25T09:37:03;19.50;50.40
3281;DHT22;1652;51.318;6.202;2023-05-25T09:39:30;20.00;99.90
3281;DHT22;1652;51.318;6.202;2023-05-25T09:41:57;19.70;1.00
3281;DHT22;1652;51.318;6.202;2023-05-25T09:44:26;20.20;1.00
3281;DHT22;1652;51.318;6.202;2023-05-25T09:46:52;19.60;1.00
3281;DHT22;1652;51.318;6.202;2023-05-25T09:49:20;18.50;1.00
3281;DHT22;1652;51.318;6.202;2023-05-25T09:51:47;18.10;99.90
3281;DHT22;1652;51.318;6.202;2023-05-25T09:54:15;18.10;99.90
3281;DHT22;1652;51.318;6.202;2023-05-25T09:56:42;17.90;99.90
3281;DHT22;1652;51.318;6.202;2023-05-25T09:59:11;17.70;1.00
3281;DHT22;1652;51.318;6.202;2023-05-25T10:01:38;17.60;1.00
3281;DHT22;1652;51.318;6.202;2023-05-25T10:04:07;17.50;1.00
3281;DHT22;1652;51.318;6.202;2023-05-25T10:06:34;17.50;1.00
3281;DHT22;1652;51.318;6.202;2023-05-25T10:09:18;17.70;99.90
3281;DHT22;1652;51.318;6.202;2023-05-25T10:11:46;17.90;99.90
3281;DHT22;1652;51.318;6.202;2023-05-25T10:14:19;18.10;1.00
3281;DHT22;1652;51.318;6.202;2023-05-25T10:16:48;18.40;1.00
3281;DHT22;1652;51.318;6.202;2023-05-25T10:19:40;17.90;99.90
3281;DHT22;1652;51.318;6.202;2023-05-25T10:22:19;17.40;1.00
3281;DHT22;1652;51.318;6.202;2023-05-25T10:24:54;17.70;99.90
3281;DHT22;1652;51.318;6.202;2023-05-25T10:27:24;17.60;1.00
3281;DHT22;1652;51.318;6.202;2023-05-25T10:29:55;17.70;1.00
3281;DHT22;1652;51.318;6.202;2023-05-25T10:32:23;17.90;99.90
3281;DHT22;1652;51.318;6.202;2023-05-25T10:34:52;17.60;98.50
3281;DHT22;1652;51.318;6.202;2023-05-25T10:37:19;17.30;99.90
3281;DHT22;1652;51.318;6.202;2023-05-25T10:39:47;17.00;99.90
3281;DHT22;1652;51.318;6.202;2023-05-25T10:42:17;17.20;1.00
3281;DHT22;1652;51.318;6.202;2023-05-25T10:44:44;17.20;99.90
3281;DHT22;1652;51.318;6.202;2023-05-25T10:47:13;17.00;46.70
3281;DHT22;1652;51.318;6.202;2023-05-25T10:50:17;16.80;99.90
3281;DHT22;1652;51.318;6.202;2023-05-25T10:52:44;17.10;99.90
3281;DHT22;1652;51.318;6.202;2023-05-25T10:55:11;17.30;99.90
3281;DHT22;1652;51.318;6.202;2023-05-25T10:57:38;17.10;99.90
3281;DHT22;1652;51.318;6.202;2023-05-25T11:00:06;17.30;1.00
3281;DHT22;1652;51.318;6.202;2023-05-25T11:02:48;17.50;99.90
3281;DHT22;1652;51.318;6.202;2023-05-25T11:07:53;17.60;1.00
3281;DHT22;1652;51.318;6.202;2023-05-25T11:16:13;17.40;1.00
3281;DHT22;1652;51.318;6.202;2023-05-25T11:18:41;17.60;99.90
3281;DHT22;1652;51.318;6.202;2023-05-25T11:23:59;18.30;1.00
3281;DHT22;1652;51.318;6.202;2023-05-25T11:26:32;18.30;1.00
3281;DHT22;1652;51.318;6.202;2023-05-25T11:29:11;18.10;1.00
3281;DHT22;1652;51.318;6.202;2023-05-25T11:31:38;17.80;1.00
3281;DHT22;1652;51.318;6.202;2023-05-25T11:34:10;17.70;1.00
3281;DHT22;1652;51.318;6.202;2023-05-25T11:36:38;17.70;1.00
3281;DHT22;1652;51.318;6.202;2023-05-25T11:39:05;18.00;1.00
3281;DHT22;1652;51.318;6.202;2023-05-25T11:41:53;18.20;99.90
3281;DHT22;1652;51.318;6.202;2023-05-25T11:44:29;17.90;99.90
3281;DHT22;1652;51.318;6.202;2023-05-25T11:46:59;17.50;99.90
3281;DHT22;1652;51.318;6.202;2023-05-25T11:49:27;17.30;1.00
3281;DHT22;1652;51.318;6.202;2023-05-25T11:51:56;17.30;99.90
3281;DHT22;1652;51.318;6.202;2023-05-25T11:54:24;17.50;79.30
3281;DHT22;1652;51.318;6.202;2023-05-25T11:56:53;17.50;99.90
3281;DHT22;1652;51.318;6.202;2023-05-25T11:59:23;17.60;1.00
3281;DHT22;1652;51.318;6.202;2023-05-25T12:01:57;17.70;99.90
3281;DHT22;1652;51.318;6.202;2023-05-25T12:04:24;17.60;99.90
3281;DHT22;1652;51.318;6.202;2023-05-25T12:06:52;17.50;96.80
3281;DHT22;1652;51.318;6.202;2023-05-25T12:09:20;17.70;99.90
3281;DHT22;1652;51.318;6.202;2023-05-25T12:11:48;17.50;1.00
3281;DHT22;1652;51.318;6.202;2023-05-25T12:14:15;17.50;1.00
3281;DHT22;1652;51.318;6.202;2023-05-25T12:16:42;17.70;1.00
3281;DHT22;1652;51.318;6.202;2023-05-25T12:19:10;17.90;99.90
3281;DHT22;1652;51.318;6.202;2023-05-25T12:21:39;18.00;99.90
3281;DHT22;1652;51.318;6.202;2023-05-25T12:24:07;17.80;1.00
3281;DHT22;1652;51.318;6.202;2023-05-25T12:26:49;17.70;1.00
3281;DHT22;1652;51.318;6.202;2023-05-25T12:29:16;17.80;1.00
3281;DHT22;1652;51.318;6.202;2023-05-25T12:31:43;17.90;99.90
3281;DHT22;1652;51.318;6.202;2023-05-25T12:34:17;18.00;1.00
3281;DHT22;1652;51.318;6.202;2023-05-25T12:36:48;17.90;1.00
3281;DHT22;1652;51.318;6.202;2023-05-25T12:41:58;17.70;1.00
3281;DHT22;1652;51.318;6.202;2023-05-25T12:44:28;17.90;99.90
3281;DHT22;1652;51.318;6.202;2023-05-25T12:47:17;18.20;99.90
3281;DHT22;1652;51.318;6.202;2023-05-25T12:49:53;18.40;1.00
3281;DHT22;1652;51.318;6.202;2023-05-25T12:57:46;18.10;1.00
3281;DHT22;1652;51.318;6.202;2023-05-25T13:00:22;18.40;1.00
3281;DHT22;1652;51.318;6.202;2023-05-25T13:02:50;18.50;99.90
3281;DHT22;1652;51.318;6.202;2023-05-25T13:05:25;18.40;1.00
3281;DHT22;1652;51.318;6.202;2023-05-25T13:07:55;18.10;1.00
3281;DHT22;1652;51.318;6.202;2023-05-25T13:10:22;18.00;99.90
3281;DHT22;1652;51.318;6.202;2023-05-25T13:12:50;17.80;99.90
3281;DHT22;1652;51.318;6.202;2023-05-25T13:15:19;17.90;1.00
3281;DHT22;1652;51.318;6.202;2023-05-25T13:17:48;18.10;99.90
3281;DHT22;1652;51.318;6.202;2023-05-25T13:20:18;18.00;1.00
3281;DHT22;1652;51.318;6.202;2023-05-25T13:22:47;17.90;1.00
3281;DHT22;1652;51.318;6.202;2023-05-25T13:25:14;17.90;1.00
3281;DHT22;1652;51.318;6.202;2023-05-25T13:27:46;18.00;99.90
3281;DHT22;1652;51.318;6.202;2023-05-25T13:30:14;18.10;1.00
3281;DHT22;1652;51.318;6.202;2023-05-25T13:32:42;18.30;99.90
3281;DHT22;1652;51.318;6.202;2023-05-25T13:35:11;18.30;1.00
3281;DHT22;1652;51.318;6.202;2023-05-25T13:37:45;18.40;99.90
3281;DHT22;1652;51.318;6.202;2023-05-25T13:40:12;18.10;1.00
3281;DHT22;1652;51.318;6.202;2023-05-25T13:42:39;17.80;1.00
3281;DHT22;1652;51.318;6.202;2023-05-25T13:45:07;17.90;99.90
3281;DHT22;1652;51.318;6.202;2023-05-25T13:47:34;18.10;99.90
3281;DHT22;1652;51.318;6.202;2023-05-25T13:50:01;18.60;1.00
3281;DHT22;1652;51.318;6.202;2023-05-25T13:52:28;18.80;1.00
3281;DHT22;1652;51.318;6.202;2023-05-25T13:54:55;18.80;1.00
3281;DHT22;1652;51.318;6.202;2023-05-25T13:57:22;18.70;1.00
3281;DHT22;1652;51.318;6.202;2023-05-25T13:59:49;18.60;1.00
3281;DHT22;1652;51.318;6.202;2023-05-25T14:02:16;18.80;1.00
3281;DHT22;1652;51.318;6.202;2023-05-25T14:04:43;18.90;1.00
3281;DHT22;1652;51.318;6.202;2023-05-25T14:07:10;18.60;1.00
3281;DHT22;1652;51.318;6.202;2023-05-25T14:09:38;18.30;1.00
3281;DHT22;1652;51.318;6.202;2023-05-25T14:12:04;18.30;1.00
3281;DHT22;1652;51.318;6.202;2023-05-25T14:14:32;18.60;1.00
3281;DHT22;1652;51.318;6.202;2023-05-25T14:16:59;18.90;99.90
3281;DHT22;1652;51.318;6.202;2023-05-25T14:19:27;19.10;99.90
3281;DHT22;1652;51.318;6.202;2023-05-25T14:21:54;19.30;99.90
3281;DHT22;1652;51.318;6.202;2023-05-25T14:24:39;19.40;99.90
3281;DHT22;1652;51.318;6.202;2023-05-25T14:27:06;19.00;99.90
3281;DHT22;1652;51.318;6.202;2023-05-25T14:29:33;18.80;1.00
3281;DHT22;1652;51.318;6.202;2023-05-25T14:32:00;18.50;1.00
3281;DHT22;1652;51.318;6.202;2023-05-25T14:34:27;18.30;25.50
3281;DHT22;1652;51.318;6.202;2023-05-25T14:36:55;18.30;99.90
3281;DHT22;1652;51.318;6.202;2023-05-25T14:39:22;18.40;1.00
3281;DHT22;1652;51.318;6.202;2023-05-25T14:41:49;18.10;1.00
3281;DHT22;1652;51.318;6.202;2023-05-25T14:44:16;17.90;1.00
3281;DHT22;1652;51.318;6.202;2023-05-25T14:46:43;17.90;1.00
3281;DHT22;1652;51.318;6.202;2023-05-25T14:49:10;17.90;99.90
3281;DHT22;1652;51.318;6.202;2023-05-25T14:51:37;17.80;1.00
3281;DHT22;1652;51.318;6.202;2023-05-25T14:54:04;17.90;1.00
3281;DHT22;1652;51.318;6.202;2023-05-25T14:56:33;17.80;1.00
3281;DHT22;1652;51.318;6.202;2023-05-25T14:59:00;17.90;42.70
3281;DHT22;1652;51.318;6.202;2023-05-25T15:01:27;18.40;1.00
3281;DHT22;1652;51.318;6.202;2023-05-25T15:03:55;18.60;1.00
3281;DHT22;1652;51.318;6.202;2023-05-25T15:06:22;18.90;99.90
3281;DHT22;1652;51.318;6.202;2023-05-25T15:08:49;18.80;99.90
3281;DHT22;1652;51.318;6.202;2023-05-25T15:11:17;18.60;99.90
3281;DHT22;1652;51.318;6.202;2023-05-25T15:13:44;18.40;1.00
3281;DHT22;1652;51.318;6.202;2023-05-25T15:16:15;18.40;1.00
3281;DHT22;1652;51.318;6.202;2023-05-25T15:18:43;18.50;1.00
3281;DHT22;1652;51.318;6.202;2023-05-25T15:21:10;18.60;1.00
3281;DHT22;1652;51.318;6.202;2023-05-25T15:23:37;18.70;99.90
3281;DHT22;1652;51.318;6.202;2023-05-25T15:26:04;18.40;1.00
3281;DHT22;1652;51.318;6.202;2023-05-25T15:28:33;18.20;1.00
3281;DHT22;1652;51.318;6.202;2023-05-25T15:31:00;18.10;99.90
3281;DHT22;1652;51.318;6.202;2023-05-25T15:33:29;18.00;1.00
3281;DHT22;1652;51.318;6.202;2023-05-25T15:36:13;18.00;1.00
3281;DHT22;1652;51.318;6.202;2023-05-25T15:38:40;17.90;1.00
3281;DHT22;1652;51.318;6.202;2023-05-25T15:41:15;18.10;1.00
3281;DHT22;1652;51.318;6.202;2023-05-25T15:43:50;18.30;1.00
3281;DHT22;1652;51.318;6.202;2023-05-25T15:46:20;18.50;99.90
3281;DHT22;1652;51.318;6.202;2023-05-25T15:49:00;18.60;99.90
3281;DHT22;1652;51.318;6.202;2023-05-25T15:51:27;18.70;99.90
3281;DHT22;1652;51.318;6.202;2023-05-25T15:53:54;19.00;99.90
3281;DHT22;1652;51.318;6.202;2023-05-25T15:56:21;18.80;99.90
3281;DHT22;1652;51.318;6.202;2023-05-25T15:58:48;18.60;99.90
3281;DHT22;1652;51.318;6.202;2023-05-25T16:01:15;18.50;99.90
3281;DHT22;1652;51.318;6.202;2023-05-25T16:03:42;18.30;99.90
3281;DHT22;1652;51.318;6.202;2023-05-25T16:06:10;18.20;1.00
3281;DHT22;1652;51.318;6.202;2023-05-25T16:08:37;18.20;99.90
3281;DHT22;1652;51.318;6.202;2023-05-25T16:11:04;18.20;99.90
3281;DHT22;1652;51.318;6.202;2023-05-25T16:13:31;18.40;1.00
3281;DHT22;1652;51.318;6.202;2023-05-25T16:15:58;18.60;99.90
3281;DHT22;1652;51.318;6.202;2023-05-25T16:18:25;18.60;99.90
3281;DHT22;1652;51.318;6.202;2023-05-25T16:20:52;18.50;1.00
3281;DHT22;1652;51.318;6.202;2023-05-25T16:23:23;18.40;1.00
3281;DHT22;1652;51.318;6.202;2023-05-25T16:25:51;18.30;99.90
3281;DHT22;1652;51.318;6.202;2023-05-25T16:28:18;18.20;99.90
3281;DHT22;1652;51.318;6.202;2023-05-25T16:30:45;18.20;1.00
3281;DHT22;1652;51.318;6.202;2023-05-25T16:33:12;18.20;1.00
3281;DHT22;1652;51.318;6.202;2023-05-25T16:35:39;18.30;99.90
3281;DHT22;1652;51.318;6.202;2023-05-25T16:38:06;18.30;99.90
3281;DHT22;1652;51.318;6.202;2023-05-25T16:40:32;18.30;1.00
3281;DHT22;1652;51.318;6.202;2023-05-25T16:43:00;18.30;1.00
3281;DHT22;1652;51.318;6.202;2023-05-25T16:45:27;18.50;99.90
3281;DHT22;1652;51.318;6.202;2023-05-25T16:47:53;18.30;1.00
3281;DHT22;1652;51.318;6.202;2023-05-25T16:50:20;18.10;1.00
3281;DHT22;1652;51.318;6.202;2023-05-25T16:52:47;18.10;1.00
3281;DHT22;1652;51.318;6.202;2023-05-25T16:55:14;18.10;1.00